This is the latest recevied weather packets stored in our database for station/object SP9EPI-13. If no packets are shown the sender has not sent any weather packets the latest 1 day(s).
| Time | Temp. | Humidity | Pressure | Rain* | Wind** | Luminosity | Snow |
|---|---|---|---|---|---|---|---|
| 1777988401 | 26.11° C | 24% | 1003.3 hPa | - | 8.94 m/s, 240° | - | - |
| 1777987801 | 27.22° C | 24% | 1003.7 hPa | - | 8.05 m/s, 212° | - | - |
| 1777987200 | 27.22° C | 24% | 1003.7 hPa | - | 12.07 m/s, 213° | - | - |
| 1777986600 | 27.78° C | 23% | 1003.3 hPa | - | 8.94 m/s, 222° | - | - |
| 1777986000 | 27.78° C | 23% | 1003.7 hPa | - | 3.13 m/s, 171° | - | - |
| 1777985400 | 27.78° C | 24% | 1003.7 hPa | - | 8.94 m/s, 170° | - | - |
| 1777984800 | 27.78° C | 24% | 1003.7 hPa | - | 12.07 m/s, 209° | - | - |
| 1777984201 | 28.89° C | 22% | 1003.7 hPa | - | 8.94 m/s, 175° | - | - |
| 1777983600 | 30° C | 21% | 1004 hPa | - | 4.92 m/s, 188° | - | - |
| 1777983000 | 28.89° C | 22% | 1004.7 hPa | - | 3.13 m/s, 180° | - | - |
| 1777982400 | 0° C | 100% | 0 hPa | - | 0 m/s | - | - |
| 1777981800 | 28.89° C | 23% | 1004.7 hPa | - | 5.81 m/s, 174° | - | - |
| 1777981203 | 27.78° C | 22% | 1004.7 hPa | - | 1.79 m/s, 133° | - | - |
| 1777980606 | 27.78° C | 24% | 1004.7 hPa | - | 4.02 m/s, 233° | - | - |
| 1777980005 | 27.78° C | 22% | 1004.7 hPa | - | 4.02 m/s, 82° | - | - |
| 1777979401 | 27.78° C | 23% | 1005 hPa | - | 3.13 m/s, 132° | - | - |
| 1777978800 | 27.78° C | 22% | 1005.4 hPa | - | 12.07 m/s, 228° | - | - |
| 1777978200 | 28.89° C | 23% | 1005.4 hPa | - | 12.07 m/s, 224° | - | - |
| 1777977601 | 27.78° C | 21% | 1005.4 hPa | - | 3.13 m/s, 74° | - | - |
| 1777977004 | 27.78° C | 23% | 1005.7 hPa | - | 11.18 m/s, 225° | - | - |
| 1777976401 | 27.78° C | 23% | 1005.7 hPa | - | 4.02 m/s, 149° | - | - |
| 1777975800 | 27.78° C | 21% | 1005.7 hPa | - | 4.02 m/s, 69° | - | - |
| 1777975201 | 27.78° C | 24% | 1005.7 hPa | - | 1.79 m/s, 90° | - | - |
| 1777974600 | 27.22° C | 23% | 1005.7 hPa | - | 4.02 m/s, 94° | - | - |
| 1777974000 | 27.78° C | 23% | 1005.7 hPa | - | 4.92 m/s, 187° | - | - |
* Rain since midnight (hover to see other rain measurements)
** Current wind speed in m/s (hover to see current wind gust speed)